Time;durP1;ratioP1;P1;durP2;ratioP2;P2;SDS_P1;SDS_P2;PMS_P1;PMS_P2;Temp;Humidity;BMP_temperature;BMP_pressure;BME280_temperature;BME280_humidity;BME280_pressure;Samples;Min_cycle;Max_cycle;Signal;HPM_P1;HPM_P2
2021/09/28 00:01:16;;;;;;;0.80;0.40;;;12.60;89.00;;;;;;5943956;24;20036;-83
2021/09/28 00:03:42;;;;;;;0.52;0.25;;;12.60;89.10;;;;;;5946566;24;20017;-82
2021/09/28 00:06:07;;;;;;;0.25;0.25;;;12.60;89.30;;;;;;5940674;24;20020;-79
2021/09/28 00:08:33;;;;;;;0.43;0.30;;;12.50;89.30;;;;;;5938544;24;20052;-82
2021/09/28 00:10:59;;;;;;;0.28;0.28;;;12.50;89.40;;;;;;5933645;24;20028;-82
2021/09/28 00:13:24;;;;;;;0.30;0.30;;;12.50;89.60;;;;;;5929721;24;20035;-81
2021/09/28 00:15:50;;;;;;;0.30;0.30;;;12.40;89.60;;;;;;5927232;24;20125;-82
2021/09/28 00:18:15;;;;;;;0.55;0.32;;;12.40;89.60;;;;;;5935058;24;20013;-80
2021/09/28 00:21:22;;;;;;;0.30;0.20;;;12.40;89.60;;;;;;6069635;23;20108;-83
2021/09/28 00:31:31;;;;;;;;;;;12.40;89.60;;;;;;6186109;23;20061;-82
2021/09/28 00:33:57;;;;;;;0.30;0.30;;;12.40;89.40;;;;;;6210700;23;19912;-81
2021/09/28 00:36:23;;;;;;;0.20;0.20;;;12.30;89.40;;;;;;6183729;23;20050;-81
2021/09/28 00:38:51;;;;;;;0.70;0.20;;;12.40;89.40;;;;;;6132656;23;20017;-82
2021/09/28 00:41:16;;;;;;;0.65;0.30;;;12.30;89.50;;;;;;6160746;23;20013;-82
2021/09/28 00:43:45;;;;;;;1.10;0.20;;;12.30;89.50;;;;;;6160124;23;20107;-82
2021/09/28 00:46:11;;;;;;;0.82;0.20;;;12.30;89.60;;;;;;6184558;23;20350;-81
2021/09/28 00:48:37;;;;;;;0.30;0.17;;;12.20;89.60;;;;;;6148278;23;20103;-82
2021/09/28 00:51:03;;;;;;;0.30;0.30;;;12.20;89.60;;;;;;6219237;23;20214;-79
2021/09/28 00:53:31;;;;;;;0.73;0.40;;;12.30;89.70;;;;;;6193334;23;20395;-82
2021/09/28 00:55:57;;;;;;;1.15;0.20;;;12.20;89.70;;;;;;6253062;22;20362;-82
2021/09/28 00:58:23;;;;;;;0.65;0.30;;;12.20;89.70;;;;;;6279726;22;20003;-82
2021/09/28 01:00:49;;;;;;;0.47;0.30;;;12.20;89.80;;;;;;6229172;22;20096;-82
2021/09/28 01:03:16;;;;;;;0.38;0.20;;;12.10;89.70;;;;;;6278637;22;20007;-82
2021/09/28 01:05:43;;;;;;;0.20;0.20;;;12.10;89.70;;;;;;6227081;22;20006;-82
2021/09/28 01:08:09;;;;;;;0.30;0.10;;;12.10;89.80;;;;;;6279432;22;20007;-82
2021/09/28 01:10:36;;;;;;;0.32;0.20;;;12.10;89.80;;;;;;6279517;22;20053;-82
2021/09/28 01:13:02;;;;;;;0.30;0.20;;;12.10;89.90;;;;;;6279264;22;20313;-82
2021/09/28 01:15:28;;;;;;;0.10;0.10;;;12.00;89.90;;;;;;6280033;22;20018;-82
2021/09/28 01:17:54;;;;;;;1.10;0.22;;;12.00;89.90;;;;;;6277497;22;20007;-82
2021/09/28 01:20:19;;;;;;;0.68;0.17;;;12.00;90.00;;;;;;6254764;22;20011;-82
2021/09/28 01:22:46;;;;;;;0.20;0.10;;;12.00;90.00;;;;;;6254418;22;20015;-82
2021/09/28 01:25:13;;;;;;;0.60;0.10;;;11.90;90.00;;;;;;6227061;22;20035;-82
2021/09/28 01:27:39;;;;;;;0.20;0.20;;;12.00;90.00;;;;;;6254441;22;20018;-82
2021/09/28 01:30:09;;;;;;;0.20;0.20;;;11.90;90.30;;;;;;6307091;22;20007;-81
2021/09/28 01:32:35;;;;;;;0.57;0.20;;;11.80;90.00;;;;;;6253901;22;20445;-82
2021/09/28 01:35:01;;;;;;;0.65;0.20;;;11.90;90.10;;;;;;6253884;22;20007;-82
2021/09/28 01:37:27;;;;;;;0.17;0.17;;;11.80;90.10;;;;;;6253926;22;20459;-82
2021/09/28 01:39:53;;;;;;;0.70;0.20;;;11.80;90.10;;;;;;6253630;22;20082;-81
2021/09/28 01:42:19;;;;;;;0.50;0.30;;;11.80;90.10;;;;;;6253793;22;20358;-82
2021/09/28 01:44:44;;;;;;;0.45;0.20;;;11.80;90.10;;;;;;6279249;22;20072;-82
2021/09/28 01:47:10;;;;;;;0.30;0.13;;;11.80;90.20;;;;;;6279437;22;20045;-82
2021/09/28 01:49:36;;;;;;;0.30;0.22;;;11.80;90.10;;;;;;6228173;22;20011;-82
2021/09/28 01:52:02;;;;;;;0.40;0.20;;;11.80;90.10;;;;;;6279569;22;20007;-82
2021/09/28 01:54:28;;;;;;;0.28;0.28;;;11.80;90.10;;;;;;6279736;22;20018;-82
2021/09/28 01:56:54;;;;;;;0.63;0.30;;;11.80;90.10;;;;;;6306753;22;20092;-81
2021/09/28 01:59:20;;;;;;;0.95;0.32;;;11.80;90.10;;;;;;6228053;22;20007;-82
2021/09/28 02:01:46;;;;;;;0.20;0.20;;;11.70;90.10;;;;;;6280015;22;19999;-82
2021/09/28 02:04:12;;;;;;;0.10;0.10;;;11.70;90.10;;;;;;6254604;22;20007;-82
2021/09/28 02:06:39;;;;;;;0.63;0.40;;;11.70;90.10;;;;;;6229101;22;20321;-82
2021/09/28 02:09:08;;;;;;;0.20;0.20;;;11.70;90.10;;;;;;6228876;22;20019;-82
2021/09/28 02:11:35;;;;;;;0.20;0.20;;;11.70;90.20;;;;;;6227526;22;20011;-82
2021/09/28 02:14:02;;;;;;;0.30;0.20;;;11.70;90.10;;;;;;6278429;22;20011;-82
2021/09/28 02:16:28;;;;;;;0.50;0.40;;;11.70;90.10;;;;;;6254141;22;20007;-82
2021/09/28 02:18:54;;;;;;;1.55;0.30;;;11.70;90.10;;;;;;6254058;22;20010;-82
2021/09/28 02:21:20;;;;;;;0.52;0.50;;;11.60;90.10;;;;;;6279927;22;20285;-81
2021/09/28 02:23:46;;;;;;;0.17;0.17;;;11.60;90.10;;;;;;6306766;22;20011;-82
2021/09/28 02:26:11;;;;;;;0.40;0.20;;;11.60;90.10;;;;;;6254171;22;20010;-82
2021/09/28 02:28:37;;;;;;;0.50;0.30;;;11.60;90.10;;;;;;6278768;22;20347;-82
2021/09/28 02:31:04;;;;;;;0.20;0.20;;;11.60;90.10;;;;;;6253632;22;20439;-82
2021/09/28 02:33:30;;;;;;;0.47;0.30;;;11.60;90.40;;;;;;6306273;22;20011;-81
2021/09/28 02:35:55;;;;;;;0.43;0.20;;;11.60;90.10;;;;;;6306257;22;20013;-82
2021/09/28 02:38:22;;;;;;;0.30;0.20;;;11.50;90.10;;;;;;6226697;22;20020;-82
2021/09/28 02:40:48;;;;;;;0.50;0.30;;;11.50;90.10;;;;;;6279180;22;20011;-81
2021/09/28 02:43:14;;;;;;;0.93;0.38;;;11.50;90.20;;;;;;6279114;22;20009;-82
2021/09/28 02:45:40;;;;;;;2.08;0.40;;;11.60;90.20;;;;;;6253043;22;20007;-83
2021/09/28 02:48:06;;;;;;;0.30;0.30;;;11.40;90.20;;;;;;6252709;22;20000;-81
2021/09/28 02:50:33;;;;;;;0.80;0.20;;;11.40;90.20;;;;;;6254139;22;20011;-82
2021/09/28 02:53:02;;;;;;;0.35;0.25;;;11.50;90.20;;;;;;6254663;22;20305;-83
2021/09/28 02:55:28;;;;;;;0.30;0.30;;;11.40;90.20;;;;;;6254691;22;20014;-82
2021/09/28 02:57:54;;;;;;;1.48;0.35;;;11.40;90.20;;;;;;6307795;22;20014;-82
2021/09/28 03:00:20;;;;;;;1.45;0.40;;;11.40;90.10;;;;;;6254471;22;20076;-82
2021/09/28 03:02:46;;;;;;;0.85;0.30;;;11.40;90.10;;;;;;6225973;22;20083;-82
2021/09/28 03:05:11;;;;;;;0.40;0.30;;;11.50;90.20;;;;;;6254578;22;20427;-83
2021/09/28 03:07:37;;;;;;;0.35;0.20;;;11.40;90.10;;;;;;6252362;22;20007;-82
2021/09/28 03:10:03;;;;;;;0.38;0.30;;;11.40;90.10;;;;;;6307503;22;20030;-82
2021/09/28 03:12:29;;;;;;;0.50;0.47;;;11.50;90.20;;;;;;6253761;22;20015;-82
2021/09/28 03:14:55;;;;;;;1.08;0.47;;;11.50;90.20;;;;;;6228297;22;20313;-82
2021/09/28 03:17:20;;;;;;;0.32;0.20;;;11.40;90.20;;;;;;6225730;22;20448;-82
2021/09/28 03:19:46;;;;;;;0.60;0.30;;;11.30;90.20;;;;;;6279376;22;20010;-81
2021/09/28 03:22:12;;;;;;;0.68;0.32;;;11.40;90.20;;;;;;6307162;22;20011;-81
2021/09/28 03:24:37;;;;;;;0.30;0.28;;;11.40;90.20;;;;;;6254034;22;20014;-82
2021/09/28 03:27:04;;;;;;;0.35;0.20;;;11.40;90.20;;;;;;6251209;22;20094;-81
2021/09/28 03:29:29;;;;;;;0.30;0.30;;;11.40;90.20;;;;;;6253887;22;20537;-82
2021/09/28 03:31:55;;;;;;;1.65;0.20;;;11.40;90.20;;;;;;6253703;22;20037;-81
2021/09/28 03:34:21;;;;;;;0.25;0.20;;;11.30;90.30;;;;;;6279415;22;20007;-82
2021/09/28 03:36:47;;;;;;;0.75;0.30;;;11.30;90.20;;;;;;6227372;22;20449;-82
2021/09/28 03:39:12;;;;;;;0.95;0.30;;;11.30;90.20;;;;;;6278856;22;20010;-81
2021/09/28 03:41:38;;;;;;;1.50;0.30;;;11.30;90.30;;;;;;6278874;22;20074;-82
2021/09/28 03:44:05;;;;;;;1.02;0.30;;;11.30;90.30;;;;;;6275709;22;20012;-81
2021/09/28 03:46:31;;;;;;;0.28;0.10;;;11.30;90.30;;;;;;6247811;22;20027;-82
2021/09/28 03:48:57;;;;;;;0.68;0.28;;;11.40;90.30;;;;;;6248695;22;20010;-81
2021/09/28 03:51:23;;;;;;;0.55;0.10;;;11.20;90.30;;;;;;6248098;22;20011;-82
2021/09/28 03:53:51;;;;;;;0.52;0.28;;;11.20;90.30;;;;;;6275439;22;20015;-82
2021/09/28 03:56:19;;;;;;;0.20;0.20;;;11.20;90.30;;;;;;6196978;22;20009;-82
2021/09/28 03:58:45;;;;;;;0.70;0.30;;;11.30;90.30;;;;;;6275080;22;20428;-81
2021/09/28 04:01:11;;;;;;;0.40;0.20;;;11.20;90.30;;;;;;6222426;22;20012;-82
2021/09/28 04:03:41;;;;;;;0.47;0.20;;;11.20;90.30;;;;;;6194710;22;20012;-82
2021/09/28 04:06:08;;;;;;;0.20;0.20;;;11.20;90.30;;;;;;6223642;22;20370;-82
2021/09/28 04:08:34;;;;;;;0.45;0.30;;;11.20;90.40;;;;;;6222957;22;20015;-82
2021/09/28 04:11:00;;;;;;;0.77;0.30;;;11.10;90.40;;;;;;6248077;22;20011;-82
2021/09/28 04:13:26;;;;;;;0.20;0.20;;;11.10;90.40;;;;;;6248160;22;20042;-82
2021/09/28 04:15:52;;;;;;;0.70;0.30;;;11.10;90.40;;;;;;6194230;22;20004;-82
2021/09/28 04:18:19;;;;;;;1.98;0.30;;;11.10;90.40;;;;;;6222949;22;20024;-82
2021/09/28 04:20:45;;;;;;;0.68;0.10;;;11.10;90.40;;;;;;6196331;22;20008;-81
2021/09/28 04:23:13;;;;;;;0.08;0.08;;;11.10;90.40;;;;;;6248356;22;20016;-81
2021/09/28 04:25:40;;;;;;;0.22;0.13;;;11.00;90.40;;;;;;6247568;22;20007;-81
2021/09/28 04:28:08;;;;;;;1.58;0.30;;;11.00;90.40;;;;;;6222498;22;20087;-81
2021/09/28 04:30:34;;;;;;;0.20;0.20;;;11.10;90.40;;;;;;6247216;22;20097;-81
2021/09/28 04:33:00;;;;;;;0.35;0.20;;;11.00;90.40;;;;;;6223429;22;20453;-81
2021/09/28 04:35:26;;;;;;;0.13;0.13;;;11.00;90.40;;;;;;6248088;22;20012;-81
2021/09/28 04:37:51;;;;;;;0.30;0.13;;;11.00;90.40;;;;;;6249177;22;20015;-82
2021/09/28 04:40:17;;;;;;;0.40;0.25;;;11.00;90.40;;;;;;6197142;22;20011;-81
2021/09/28 04:42:43;;;;;;;0.20;0.17;;;11.00;90.40;;;;;;6249862;22;20019;-81
2021/09/28 04:45:10;;;;;;;0.13;0.10;;;10.90;90.40;;;;;;6199153;22;20015;-82
2021/09/28 04:47:37;;;;;;;0.50;0.13;;;10.90;90.50;;;;;;6277179;22;20019;-81
2021/09/28 04:50:03;;;;;;;0.10;0.10;;;10.90;90.50;;;;;;6223573;22;20307;-81
2021/09/28 04:52:29;;;;;;;0.10;0.10;;;10.90;90.50;;;;;;6249778;22;20061;-81
2021/09/28 04:54:54;;;;;;;0.75;0.10;;;10.80;90.50;;;;;;6197684;22;20055;-82
2021/09/28 04:57:21;;;;;;;0.20;0.10;;;10.90;90.50;;;;;;6276652;22;20129;-82
2021/09/28 04:59:48;;;;;;;0.98;0.20;;;10.90;90.50;;;;;;6223621;22;20363;-82
2021/09/28 05:02:14;;;;;;;0.15;0.15;;;10.80;90.50;;;;;;6249721;22;20008;-81
2021/09/28 05:04:41;;;;;;;0.60;0.20;;;10.90;90.50;;;;;;6198393;22;20509;-82
2021/09/28 05:07:06;;;;;;;0.38;0.22;;;11.00;90.50;;;;;;6223946;22;20011;-82
2021/09/28 05:09:32;;;;;;;0.20;0.20;;;10.80;90.50;;;;;;6248085;22;20330;-82
2021/09/28 05:11:59;;;;;;;0.10;0.10;;;10.80;90.50;;;;;;6225375;22;20302;-82
2021/09/28 05:14:26;;;;;;;0.63;0.25;;;10.80;90.50;;;;;;6276063;22;20065;-82
2021/09/28 05:16:52;;;;;;;0.30;0.20;;;10.80;90.50;;;;;;6223651;22;20003;-83
2021/09/28 05:19:17;;;;;;;0.30;0.13;;;10.80;90.50;;;;;;6218603;23;20008;-83
2021/09/28 05:21:43;;;;;;;0.10;0.10;;;10.80;90.50;;;;;;6248059;22;20053;-83
2021/09/28 05:24:09;;;;;;;0.68;0.30;;;10.80;90.50;;;;;;6276423;22;20433;-82
2021/09/28 05:26:35;;;;;;;0.73;0.30;;;10.80;90.50;;;;;;6237543;22;20058;-81
2021/09/28 05:29:01;;;;;;;0.75;0.10;;;10.80;90.50;;;;;;6300770;22;19992;-81
2021/09/28 05:31:28;;;;;;;0.28;0.20;;;10.80;90.40;;;;;;6272997;22;20007;-81
2021/09/28 05:33:53;;;;;;;0.13;0.10;;;10.70;90.40;;;;;;6246859;22;20038;-81
2021/09/28 05:36:19;;;;;;;0.20;0.10;;;10.90;90.40;;;;;;6272629;22;20004;-81
2021/09/28 05:38:45;;;;;;;0.20;0.20;;;10.80;90.40;;;;;;6271134;22;20015;-81
2021/09/28 05:41:11;;;;;;;0.17;0.15;;;10.80;90.40;;;;;;6301073;22;20003;-81
2021/09/28 05:43:39;;;;;;;0.20;0.10;;;10.80;90.40;;;;;;6291113;22;20008;-82
2021/09/28 05:46:05;;;;;;;0.30;0.30;;;10.80;90.40;;;;;;6255470;22;20087;-82
2021/09/28 05:48:31;;;;;;;0.60;0.30;;;10.80;90.40;;;;;;6281394;22;20085;-82
2021/09/28 05:50:57;;;;;;;0.25;0.20;;;10.80;90.40;;;;;;6204155;23;20016;-82
2021/09/28 05:53:25;;;;;;;0.77;0.20;;;10.80;90.50;;;;;;6285201;22;20003;-82
2021/09/28 05:55:50;;;;;;;0.10;0.10;;;10.80;90.40;;;;;;6240682;22;20099;-84
2021/09/28 05:58:16;;;;;;;0.40;0.20;;;10.80;90.40;;;;;;6229570;22;20011;-82
2021/09/28 06:00:42;;;;;;;0.20;0.20;;;10.80;90.40;;;;;;6202198;22;20004;-83
2021/09/28 06:03:08;;;;;;;0.20;0.20;;;10.90;90.40;;;;;;6255807;22;20011;-83
2021/09/28 06:05:35;;;;;;;0.52;0.28;;;10.90;90.40;;;;;;6209782;22;20007;-82
2021/09/28 06:08:01;;;;;;;0.43;0.20;;;10.90;90.40;;;;;;6231343;22;20066;-81
2021/09/28 06:10:27;;;;;;;0.20;0.20;;;10.90;90.40;;;;;;6275847;22;20008;-81
2021/09/28 06:12:53;;;;;;;0.10;0.10;;;10.80;90.30;;;;;;6248925;22;20034;-89
2021/09/28 06:15:19;;;;;;;0.35;0.17;;;10.90;90.30;;;;;;6162585;23;20020;-81
2021/09/28 06:17:45;;;;;;;0.20;0.10;;;10.90;90.30;;;;;;6162074;23;20480;-81
2021/09/28 06:20:11;;;;;;;0.43;0.20;;;10.90;90.30;;;;;;6162285;23;20016;-81
2021/09/28 06:22:37;;;;;;;0.20;0.20;;;10.90;90.40;;;;;;6137445;23;20095;-81
2021/09/28 06:25:04;;;;;;;0.90;0.32;;;10.80;90.30;;;;;;6137066;23;20103;-82
2021/09/28 06:27:30;;;;;;;0.47;0.20;;;10.90;90.30;;;;;;6135358;23;20020;-81
2021/09/28 06:29:56;;;;;;;1.10;0.35;;;11.00;90.30;;;;;;6135540;23;20017;-81
2021/09/28 06:32:23;;;;;;;0.20;0.20;;;11.00;90.30;;;;;;6162141;23;20015;-81
2021/09/28 06:34:50;;;;;;;0.60;0.30;;;11.00;90.20;;;;;;6160423;23;20029;-81
2021/09/28 06:37:16;;;;;;;0.30;0.30;;;11.10;90.30;;;;;;6135463;23;20436;-81
2021/09/28 06:39:42;;;;;;;0.60;0.30;;;11.10;90.20;;;;;;6159124;23;20013;-81
2021/09/28 06:42:08;;;;;;;0.47;0.10;;;11.20;90.30;;;;;;6136679;23;20139;-81
2021/09/28 06:44:34;;;;;;;0.40;0.30;;;11.20;90.20;;;;;;6160874;23;20104;-81
2021/09/28 06:47:00;;;;;;;1.65;0.20;;;11.10;90.20;;;;;;6183525;22;20019;-81
2021/09/28 06:49:29;;;;;;;0.20;0.20;;;11.10;90.20;;;;;;6198257;22;20054;-81
2021/09/28 06:51:55;;;;;;;0.73;0.20;;;11.20;90.20;;;;;;6223884;22;20070;-81
2021/09/28 06:54:21;;;;;;;0.82;0.38;;;11.20;90.20;;;;;;6197166;22;20444;-81
2021/09/28 06:56:47;;;;;;;1.48;0.38;;;11.20;90.20;;;;;;6196115;22;20012;-81
2021/09/28 06:59:13;;;;;;;0.55;0.35;;;11.30;90.20;;;;;;6197442;22;20026;-81
2021/09/28 07:01:39;;;;;;;0.95;0.22;;;11.30;90.20;;;;;;6197338;22;20011;-81
2021/09/28 07:04:05;;;;;;;0.85;0.30;;;11.40;90.10;;;;;;6221593;22;20008;-81
2021/09/28 07:06:32;;;;;;;0.13;0.13;;;11.40;90.10;;;;;;6197918;22;20015;-82
2021/09/28 07:08:58;;;;;;;0.98;0.20;;;11.40;90.10;;;;;;6198211;22;20016;-81
2021/09/28 07:11:24;;;;;;;0.60;0.30;;;11.50;90.10;;;;;;6197933;22;20038;-81
2021/09/28 07:13:51;;;;;;;0.90;0.30;;;11.50;90.00;;;;;;6197678;22;20497;-81
2021/09/28 07:16:18;;;;;;;0.25;0.20;;;11.60;90.00;;;;;;6198241;22;20019;-81
2021/09/28 07:18:44;;;;;;;0.20;0.20;;;11.70;90.00;;;;;;6198580;22;20099;-81
2021/09/28 07:21:11;;;;;;;1.48;0.28;;;11.70;89.80;;;;;;6223912;22;20011;-82
2021/09/28 07:23:37;;;;;;;0.43;0.20;;;11.80;89.70;;;;;;6198156;22;20012;-82
2021/09/28 07:26:04;;;;;;;0.60;0.20;;;11.80;89.70;;;;;;6198763;22;20091;-81
2021/09/28 07:28:30;;;;;;;1.00;0.47;;;11.90;89.50;;;;;;6222935;22;20146;-84
2021/09/28 07:30:57;;;;;;;0.80;0.30;;;12.00;89.40;;;;;;6198186;22;20019;-83
2021/09/28 07:33:26;;;;;;;0.40;0.30;;;12.00;89.30;;;;;;6198077;22;20008;-84
2021/09/28 07:35:52;;;;;;;0.73;0.35;;;12.10;89.20;;;;;;6197048;22;20087;-84
2021/09/28 07:38:18;;;;;;;0.93;0.50;;;12.10;89.10;;;;;;6198488;22;20012;-83
2021/09/28 07:40:48;;;;;;;0.93;0.40;;;12.10;89.00;;;;;;6197822;22;20101;-82
2021/09/28 07:43:17;;;;;;;0.70;0.40;;;12.20;88.90;;;;;;6198541;22;20008;-83
2021/09/28 07:45:47;;;;;;;1.83;0.40;;;12.30;88.90;;;;;;6223154;22;20328;-83
2021/09/28 07:48:13;;;;;;;1.30;0.30;;;12.30;88.90;;;;;;6197591;22;20141;-82
2021/09/28 07:50:39;;;;;;;0.77;0.50;;;12.40;88.90;;;;;;6191809;23;20012;-83
2021/09/28 07:53:07;;;;;;;0.85;0.40;;;12.40;88.80;;;;;;6191932;23;20143;-83
2021/09/28 07:55:35;;;;;;;1.00;0.52;;;12.50;88.70;;;;;;6192132;23;20087;-82
2021/09/28 07:58:02;;;;;;;0.65;0.47;;;12.50;88.60;;;;;;6192194;23;20103;-81
2021/09/28 08:00:28;;;;;;;2.25;0.70;;;12.70;88.60;;;;;;6191629;23;20407;-82
2021/09/28 08:02:54;;;;;;;0.55;0.45;;;12.70;88.50;;;;;;6192284;23;20008;-82
2021/09/28 08:05:20;;;;;;;2.55;0.60;;;12.90;88.60;;;;;;6191773;23;20047;-83
2021/09/28 08:07:46;;;;;;;1.80;0.90;;;12.80;88.30;;;;;;6192463;23;20016;-83
2021/09/28 08:10:15;;;;;;;0.60;0.50;;;12.90;88.20;;;;;;6191567;23;20518;-80
2021/09/28 08:12:42;;;;;;;1.33;0.50;;;13.00;88.10;;;;;;6193479;23;20098;-81
2021/09/28 08:15:09;;;;;;;1.70;0.60;;;13.00;88.10;;;;;;6192850;23;20016;-82
2021/09/28 08:17:35;;;;;;;1.17;0.57;;;13.10;88.10;;;;;;6194093;23;20028;-82
2021/09/28 08:20:03;;;;;;;1.65;0.70;;;13.20;88.10;;;;;;6192669;23;20487;-81
2021/09/28 08:22:30;;;;;;;0.73;0.50;;;13.10;87.90;;;;;;6195645;22;20018;-81
2021/09/28 08:25:06;;;;;;;1.27;0.40;;;13.30;88.00;;;;;;6197010;22;20018;-81
2021/09/28 08:30:09;;;;;;;1.02;0.50;;;13.30;87.90;;;;;;6227509;22;20123;-81
2021/09/28 08:32:36;;;;;;;1.05;0.43;;;13.50;87.90;;;;;;6199271;22;20011;-81
2021/09/28 08:35:03;;;;;;;1.52;0.60;;;13.50;87.70;;;;;;6198633;22;20011;-81
2021/09/28 08:37:29;;;;;;;0.85;0.30;;;13.50;87.70;;;;;;6199181;22;20008;-81
2021/09/28 08:39:56;;;;;;;0.40;0.40;;;13.60;87.70;;;;;;6197212;22;20481;-81
2021/09/28 08:42:24;;;;;;;1.20;0.40;;;13.70;87.80;;;;;;6224005;22;20014;-81
2021/09/28 08:44:52;;;;;;;1.20;0.40;;;13.80;87.70;;;;;;6198153;22;20015;-83
2021/09/28 08:47:41;;;;;;;2.20;0.70;;;13.80;87.60;;;;;;6197900;22;20026;-81
2021/09/28 08:50:12;;;;;;;0.95;0.45;;;13.80;87.50;;;;;;6197398;22;20103;-80
2021/09/28 08:52:40;;;;;;;1.05;0.30;;;13.90;87.40;;;;;;6195031;22;20098;-81
2021/09/28 08:55:07;;;;;;;1.33;0.50;;;13.90;87.30;;;;;;6198576;22;20022;-80
2021/09/28 08:57:33;;;;;;;0.98;0.47;;;14.00;87.20;;;;;;6196669;22;20035;-80
2021/09/28 08:59:59;;;;;;;1.25;0.50;;;14.00;87.20;;;;;;6198576;22;20129;-81
2021/09/28 09:02:47;;;;;;;1.65;0.40;;;14.10;87.10;;;;;;6194610;22;20035;-81
2021/09/28 09:05:14;;;;;;;0.28;0.20;;;14.20;87.00;;;;;;6221205;22;20004;-81
2021/09/28 09:07:42;;;;;;;1.67;0.50;;;14.20;87.00;;;;;;6197312;22;20019;-80
2021/09/28 09:10:10;;;;;;;0.57;0.30;;;14.30;87.00;;;;;;6198409;22;20011;-82
2021/09/28 09:12:40;;;;;;;0.68;0.30;;;14.30;87.00;;;;;;6196639;22;20024;-81
2021/09/28 09:15:19;;;;;;;0.45;0.20;;;14.30;87.00;;;;;;6194068;22;20020;-81
2021/09/28 09:17:46;;;;;;;0.55;0.40;;;14.40;87.00;;;;;;6223845;22;20018;-81
2021/09/28 09:20:30;;;;;;;0.40;0.38;;;14.40;86.90;;;;;;6221455;22;20011;-80
2021/09/28 09:23:22;;;;;;;1.08;0.47;;;14.40;86.90;;;;;;6220306;22;20003;-82
2021/09/28 09:26:16;;;;;;;1.15;0.50;;;14.50;86.90;;;;;;6199496;22;20062;-81
2021/09/28 09:28:46;;;;;;;0.52;0.38;;;14.50;86.80;;;;;;6228261;22;20015;-81
2021/09/28 09:31:30;;;;;;;1.33;0.50;;;14.60;87.30;;;;;;6193692;23;20477;-81
2021/09/28 09:34:10;;;;;;;0.32;0.30;;;14.70;86.70;;;;;;6193383;23;20104;-81
2021/09/28 09:36:37;;;;;;;1.05;0.50;;;14.70;86.50;;;;;;6197147;22;20012;-81
2021/09/28 09:39:09;;;;;;;0.50;0.35;;;14.70;86.40;;;;;;6193562;23;20008;-81
2021/09/28 09:41:38;;;;;;;0.82;0.32;;;14.80;86.40;;;;;;6197169;22;20087;-83
2021/09/28 09:44:11;;;;;;;1.73;0.50;;;14.90;86.30;;;;;;6193788;23;20012;-81
2021/09/28 09:46:42;;;;;;;1.17;0.50;;;14.90;86.10;;;;;;6196788;22;20023;-81
2021/09/28 09:49:09;;;;;;;0.45;0.30;;;15.00;85.90;;;;;;6199705;22;20011;-81
2021/09/28 09:51:45;;;;;;;2.92;0.60;;;15.00;85.80;;;;;;6198775;22;20038;-81
2021/09/28 09:54:12;;;;;;;0.75;0.43;;;15.00;85.70;;;;;;6223962;22;20011;-81
2021/09/28 09:56:48;;;;;;;2.67;0.50;;;15.20;85.60;;;;;;6197282;22;20055;-81
2021/09/28 10:00:26;;;;;;;1.95;0.40;;;15.20;85.50;;;;;;6189992;23;20085;-82
2021/09/28 10:03:29;;;;;;;3.58;0.60;;;15.30;85.30;;;;;;6249257;22;20506;-83
2021/09/28 10:06:06;;;;;;;2.00;0.70;;;15.30;85.10;;;;;;6219667;22;20016;-84
2021/09/28 10:08:51;;;;;;;1.55;0.45;;;15.30;84.90;;;;;;6092308;23;20022;-81
2021/09/28 10:11:22;;;;;;;0.43;0.35;;;15.50;84.90;;;;;;6026554;23;20031;-82
2021/09/28 10:13:56;;;;;;;1.92;0.50;;;15.40;84.80;;;;;;5988857;23;20290;-83
2021/09/28 10:17:07;;;;;;;1.58;0.57;;;15.50;84.90;;;;;;5986414;23;20037;-81
2021/09/28 10:20:49;;;;;;;1.55;0.60;;;15.50;84.80;;;;;;5973451;23;20367;-84
2021/09/28 10:23:41;;;;;;;1.48;0.63;;;15.70;84.70;;;;;;5952244;23;20016;-81
2021/09/28 10:26:20;;;;;;;0.60;0.43;;;15.80;84.40;;;;;;5980231;23;20017;-81
2021/09/28 10:29:19;;;;;;;1.00;0.43;;;15.80;84.30;;;;;;5927595;24;20020;-83
2021/09/28 10:35:38;;;;;;;1.67;0.55;;;15.90;84.10;;;;;;5979779;23;20051;-83
2021/09/28 10:41:49;;;;;;;2.05;0.80;;;16.00;83.90;;;;;;6007293;23;20027;-81
2021/09/28 10:44:43;;;;;;;0.82;0.43;;;16.10;83.70;;;;;;6008483;23;20027;-82
2021/09/28 10:47:49;;;;;;;1.20;0.38;;;16.10;83.60;;;;;;6007922;23;20480;-83
2021/09/28 10:50:22;;;;;;;0.70;0.43;;;16.20;83.50;;;;;;6008630;23;20020;-84
2021/09/28 10:52:59;;;;;;;1.67;0.50;;;16.20;83.40;;;;;;5982569;23;20522;-82
2021/09/28 10:55:41;;;;;;;1.88;0.50;;;16.30;83.20;;;;;;6006762;23;20023;-83
2021/09/28 11:02:04;;;;;;;1.30;0.50;;;16.40;83.00;;;;;;6001243;23;20023;-83
2021/09/28 11:04:30;;;;;;;;;;;16.50;82.90;;;;;;6051977;23;20456;-83
2021/09/28 11:07:08;;;;;;;2.80;0.43;;;16.50;82.80;;;;;;6036314;23;20358;-84
2021/09/28 11:09:46;;;;;;;1.15;0.35;;;16.60;82.90;;;;;;6088162;23;20049;-83
2021/09/28 11:12:21;;;;;;;1.70;0.50;;;16.50;82.70;;;;;;6108998;23;20021;-83
2021/09/28 11:14:56;;;;;;;0.47;0.40;;;16.60;82.70;;;;;;6129084;23;20096;-83
2021/09/28 11:21:17;;;;;;;1.45;0.60;;;16.80;82.50;;;;;;6006204;23;20023;-86
2021/09/28 11:24:26;;;;;;;1.52;0.70;;;16.90;82.00;;;;;;5960692;23;20537;-88
2021/09/28 11:27:02;;;;;;;1.52;0.55;;;16.90;81.70;;;;;;6000204;23;20023;-83
2021/09/28 11:30:24;;;;;;;1.05;0.52;;;16.90;81.60;;;;;;5994824;23;20104;-84
2021/09/28 11:33:45;;;;;;;0.57;0.43;;;17.00;81.60;;;;;;5880541;24;20013;-83
2021/09/28 11:36:17;;;;;;;1.35;0.40;;;17.10;81.50;;;;;;5850210;24;20026;-84
2021/09/28 11:38:59;;;;;;;0.63;0.30;;;17.10;81.40;;;;;;5820950;24;20023;-83
2021/09/28 11:41:35;;;;;;;1.98;0.60;;;17.20;81.10;;;;;;5788465;24;20023;-84
2021/09/28 11:44:27;;;;;;;1.50;0.40;;;17.40;81.10;;;;;;5789665;24;20458;-84
2021/09/28 11:47:01;;;;;;;1.25;0.60;;;17.50;80.90;;;;;;5763372;24;20033;-83
2021/09/28 11:49:50;;;;;;;1.98;0.50;;;17.30;80.60;;;;;;5732467;24;20024;-85
2021/09/28 11:52:20;;;;;;;1.27;0.77;;;17.60;80.70;;;;;;5789342;24;20028;-84
2021/09/28 11:54:55;;;;;;;0.73;0.30;;;17.70;80.40;;;;;;5790215;24;20109;-84
2021/09/28 11:57:24;;;;;;;2.45;0.70;;;17.80;80.10;;;;;;5787586;24;20023;-84
2021/09/28 11:59:54;;;;;;;0.70;0.40;;;17.70;79.90;;;;;;5789882;24;20512;-84
2021/09/28 12:02:22;;;;;;;1.92;0.60;;;17.70;79.70;;;;;;5855355;24;20021;-84
2021/09/28 12:10:18;;;;;;;2.10;0.60;;;17.90;79.30;;;;;;5994798;23;20047;-82
2021/09/28 12:13:20;;;;;;;0.75;0.50;;;17.80;79.50;;;;;;6012802;23;20563;-83
2021/09/28 12:15:59;;;;;;;;;;;18.00;79.50;;;;;;5963317;23;20027;-86
2021/09/28 12:18:25;;;;;;;1.70;0.40;;;18.10;79.20;;;;;;6088367;23;19909;-83
2021/09/28 12:20:51;;;;;;;1.35;0.40;;;18.20;78.90;;;;;;6097991;23;20042;-83
2021/09/28 12:23:19;;;;;;;0.50;0.40;;;18.30;78.70;;;;;;6097585;23;20057;-81
2021/09/28 12:25:47;;;;;;;1.92;0.40;;;18.40;78.50;;;;;;6074297;23;20502;-82
2021/09/28 12:28:18;;;;;;;1.05;0.40;;;18.30;78.10;;;;;;6073172;23;20036;-82
2021/09/28 12:30:55;;;;;;;0.70;0.50;;;18.40;78.30;;;;;;6126684;22;20012;-83
2021/09/28 12:33:22;;;;;;;1.23;0.47;;;18.40;78.30;;;;;;6223175;22;20012;-84
2021/09/28 12:35:53;;;;;;;1.48;0.40;;;18.60;78.30;;;;;;6222713;22;20042;-83
2021/09/28 12:38:19;;;;;;;1.55;0.50;;;18.60;78.10;;;;;;6247962;22;20439;-83
2021/09/28 12:40:45;;;;;;;1.80;0.40;;;18.60;77.70;;;;;;6247574;22;20003;-83
2021/09/28 12:43:16;;;;;;;1.17;0.40;;;18.50;78.50;;;;;;6222562;22;20074;-83
2021/09/28 12:45:51;;;;;;;0.77;0.30;;;18.40;78.30;;;;;;6248961;22;20050;-82
2021/09/28 12:48:25;;;;;;;0.93;0.38;;;18.40;78.40;;;;;;6248244;22;20012;-83
2021/09/28 12:51:02;;;;;;;1.80;0.35;;;18.40;78.20;;;;;;6247666;22;20090;-83
2021/09/28 12:53:49;;;;;;;1.17;0.25;;;18.40;78.40;;;;;;6247726;22;20018;-84
2021/09/28 12:56:20;;;;;;;1.00;0.40;;;18.50;78.20;;;;;;6252196;22;20043;-84
2021/09/28 12:58:46;;;;;;;1.02;0.40;;;18.70;77.60;;;;;;6217647;23;20016;-86
2021/09/28 13:01:15;;;;;;;0.70;0.45;;;18.80;77.10;;;;;;6218098;23;20008;-83
2021/09/28 13:03:40;;;;;;;1.92;0.60;;;18.80;76.90;;;;;;6167993;23;20020;-84
2021/09/28 13:06:20;;;;;;;1.52;0.30;;;18.90;76.80;;;;;;6192837;23;20448;-85
2021/09/28 13:08:52;;;;;;;1.48;0.43;;;18.90;76.50;;;;;;6157392;23;20016;-85
2021/09/28 13:11:17;;;;;;;1.52;0.50;;;18.90;76.30;;;;;;6159326;23;20017;-85
2021/09/28 13:13:51;;;;;;;0.80;0.40;;;19.10;76.30;;;;;;6157707;23;20027;-83
2021/09/28 13:16:20;;;;;;;0.60;0.40;;;18.80;76.20;;;;;;6159181;23;20580;-83
2021/09/28 13:18:46;;;;;;;1.58;0.40;;;18.80;76.40;;;;;;6157511;23;20029;-83
2021/09/28 13:21:11;;;;;;;1.10;0.40;;;18.80;76.50;;;;;;6183586;23;20397;-85
2021/09/28 13:23:37;;;;;;;1.55;0.47;;;18.60;76.50;;;;;;6182733;23;20047;-84
2021/09/28 13:26:03;;;;;;;1.75;0.45;;;18.70;76.60;;;;;;6157973;23;20517;-83
2021/09/28 13:28:28;;;;;;;1.02;0.30;;;18.60;76.80;;;;;;6133983;23;20013;-84
2021/09/28 13:30:55;;;;;;;0.68;0.40;;;18.60;76.80;;;;;;6191821;23;20091;-84
2021/09/28 13:33:20;;;;;;;1.33;0.40;;;18.50;76.80;;;;;;6168963;22;20037;-83